No.3tokuyomaru — JD3132 — position and weather

sailwx.info

Track history (hours):
 
Tides and Currents Weather Stations Pressure Air Temp Water Temp Dewpoint Dewpoint Depression Visibility Wind Speed Wind Dir Waves Ship Positions

No.3tokuyomaru

Last reported at 2015-Feb-25 15:32 UTC. Time now 2015-Mar-02 03:41 UTC.
Position N 34°37' E 135°01'.

Length 67 m; draft 4.6 m.

Type: Tanker. MMSI: 431002151.

Date/timePositionNaut miles runAvg speedWind from/ knotsBaromVisibWave heightAir tempDewpointWater temp
2015-Feb-25 15:32N 34°37' E 135°01'1211.7
2015-Feb-25 14:31N 34°26' E 135°02'1312.8
2015-Feb-25 13:30N 34°13' E 134°60'231 9.9
2015-Feb-24 14:10N 35°03' E 139°34'812.9
2015-Feb-24 13:33N 35°08' E 139°42'1211.0
2015-Feb-24 12:30N 35°19' E 139°43'1112.1
2015-Feb-24 11:33N 35°30' E 139°48'2 0.3
2015-Feb-24 06:32N 35°31' E 139°46'3 2.7
2015-Feb-24 05:33N 35°29' E 139°48'0 0.0
2015-Feb-24 04:30N 35°29' E 139°48'0 0.0
2015-Feb-24 02:21N 35°29' E 139°48'0 0.0
2015-Feb-24 01:09N 35°29' E 139°48'0 0.0
2015-Feb-24 00:33N 35°29' E 139°48'0 0.1
2015-Feb-23 23:32N 35°29' E 139°48'1111.0
2015-Feb-23 22:33N 35°19' E 139°44'  
2015-Feb-20 06:20N 34°06' E 134°60'1714.3
2015-Feb-20 05:07N 34°24' E 135°00'913.9
2015-Feb-20 04:30N 34°32' E 135°02'1211.4
2015-Feb-20 03:24N 34°38' E 134°49'  
Track history (hours):
 
Tides and Currents Weather Stations Pressure Air Temp Water Temp Dewpoint Dewpoint Depression Visibility Wind Speed Wind Dir Waves Ship Positions

No.3tokuyomaru

Last reported at 2015-Feb-25 15:32 UTC. Time now 2015-Mar-02 03:41 UTC.
Position N 34°37' E 135°01'.

Length 67 m; draft 4.6 m.

Type: Tanker. MMSI: 431002151.

Date/timePositionNaut miles runAvg speedWind from/ knotsBaromVisibWave heightAir tempDewpointWater temp
2015-Feb-25 15:32N 34°37' E 135°01'1211.7
2015-Feb-25 14:31N 34°26' E 135°02'1312.8
2015-Feb-25 13:30N 34°13' E 134°60'231 9.9
2015-Feb-24 14:10N 35°03' E 139°34'812.9
2015-Feb-24 13:33N 35°08' E 139°42'1211.0
2015-Feb-24 12:30N 35°19' E 139°43'1112.1
2015-Feb-24 11:33N 35°30' E 139°48'2 0.3
2015-Feb-24 06:32N 35°31' E 139°46'3 2.7
2015-Feb-24 05:33N 35°29' E 139°48'0 0.0
2015-Feb-24 04:30N 35°29' E 139°48'0 0.0
2015-Feb-24 02:21N 35°29' E 139°48'0 0.0
2015-Feb-24 01:09N 35°29' E 139°48'0 0.0
2015-Feb-24 00:33N 35°29' E 139°48'0 0.1
2015-Feb-23 23:32N 35°29' E 139°48'1111.0
2015-Feb-23 22:33N 35°19' E 139°44'  
2015-Feb-20 06:20N 34°06' E 134°60'1714.3
2015-Feb-20 05:07N 34°24' E 135°00'913.9
2015-Feb-20 04:30N 34°32' E 135°02'1211.4
2015-Feb-20 03:24N 34°38' E 134°49'  

Dump ship's entire track history